sensor_id;sensor_type;location;lat;lon;timestamp;temperature;humidity
23683;DHT22;24897;53.514;10.482;2022-09-17T00:02:01;12.30;99.90
23683;DHT22;24897;53.514;10.482;2022-09-17T00:04:47;12.30;99.90
23683;DHT22;24897;53.514;10.482;2022-09-17T00:07:32;12.30;99.90
23683;DHT22;24897;53.514;10.482;2022-09-17T00:10:17;12.30;99.90
23683;DHT22;24897;53.514;10.482;2022-09-17T00:13:03;12.40;99.90
23683;DHT22;24897;53.514;10.482;2022-09-17T00:15:47;12.40;99.90
23683;DHT22;24897;53.514;10.482;2022-09-17T00:18:32;12.50;99.90
23683;DHT22;24897;53.514;10.482;2022-09-17T00:21:18;12.50;99.90
23683;DHT22;24897;53.514;10.482;2022-09-17T00:24:04;12.50;99.90
23683;DHT22;24897;53.514;10.482;2022-09-17T00:26:48;12.50;99.90
23683;DHT22;24897;53.514;10.482;2022-09-17T00:29:33;12.60;99.90
23683;DHT22;24897;53.514;10.482;2022-09-17T00:32:17;12.60;99.90
23683;DHT22;24897;53.514;10.482;2022-09-17T00:35:01;12.40;99.90
23683;DHT22;24897;53.514;10.482;2022-09-17T00:37:45;11.90;99.90
23683;DHT22;24897;53.514;10.482;2022-09-17T00:40:29;12.90;99.90
23683;DHT22;24897;53.514;10.482;2022-09-17T00:43:34;12.50;99.90
23683;DHT22;24897;53.514;10.482;2022-09-17T00:49:25;12.30;99.90
23683;DHT22;24897;53.514;10.482;2022-09-17T00:52:18;12.50;99.90
23683;DHT22;24897;53.514;10.482;2022-09-17T00:55:14;12.40;99.90
23683;DHT22;24897;53.514;10.482;2022-09-17T00:58:02;12.50;99.90
23683;DHT22;24897;53.514;10.482;2022-09-17T01:00:47;12.40;99.90
23683;DHT22;24897;53.514;10.482;2022-09-17T01:06:39;12.50;99.90
23683;DHT22;24897;53.514;10.482;2022-09-17T01:15:35;12.90;99.90
23683;DHT22;24897;53.514;10.482;2022-09-17T01:22:24;12.90;99.90
23683;DHT22;24897;53.514;10.482;2022-09-17T01:26:00;12.40;99.90
23683;DHT22;24897;53.514;10.482;2022-09-17T01:28:46;12.30;99.90
23683;DHT22;24897;53.514;10.482;2022-09-17T01:31:51;12.20;99.90
23683;DHT22;24897;53.514;10.482;2022-09-17T01:37:35;12.30;99.90
23683;DHT22;24897;53.514;10.482;2022-09-17T01:49:04;12.20;99.90
23683;DHT22;24897;53.514;10.482;2022-09-17T01:51:49;12.10;99.90
23683;DHT22;24897;53.514;10.482;2022-09-17T01:54:41;12.10;99.90
23683;DHT22;24897;53.514;10.482;2022-09-17T02:00:14;12.20;99.90
23683;DHT22;24897;53.514;10.482;2022-09-17T02:03:18;12.10;99.90
23683;DHT22;24897;53.514;10.482;2022-09-17T02:06:11;12.10;99.90
23683;DHT22;24897;53.514;10.482;2022-09-17T02:09:00;12.00;99.90
23683;DHT22;24897;53.514;10.482;2022-09-17T02:11:49;12.00;99.90
23683;DHT22;24897;53.514;10.482;2022-09-17T02:14:40;11.70;99.90
23683;DHT22;24897;53.514;10.482;2022-09-17T02:17:43;12.20;99.90
23683;DHT22;24897;53.514;10.482;2022-09-17T02:20:38;11.80;99.90
23683;DHT22;24897;53.514;10.482;2022-09-17T02:23:29;11.90;99.90
23683;DHT22;24897;53.514;10.482;2022-09-17T02:26:17;11.50;99.90
23683;DHT22;24897;53.514;10.482;2022-09-17T02:29:20;11.50;99.90
23683;DHT22;24897;53.514;10.482;2022-09-17T02:32:08;11.80;99.90
23683;DHT22;24897;53.514;10.482;2022-09-17T02:37:37;11.60;99.90
23683;DHT22;24897;53.514;10.482;2022-09-17T02:40:22;11.50;99.90
23683;DHT22;24897;53.514;10.482;2022-09-17T02:43:36;12.20;99.90
23683;DHT22;24897;53.514;10.482;2022-09-17T02:49:57;11.70;99.90
23683;DHT22;24897;53.514;10.482;2022-09-17T02:56:12;11.60;99.90
23683;DHT22;24897;53.514;10.482;2022-09-17T02:59:18;12.10;99.90
23683;DHT22;24897;53.514;10.482;2022-09-17T03:05:17;12.10;99.90
23683;DHT22;24897;53.514;10.482;2022-09-17T03:08:01;11.60;99.90
23683;DHT22;24897;53.514;10.482;2022-09-17T03:13:33;11.70;99.90
23683;DHT22;24897;53.514;10.482;2022-09-17T03:16:18;12.00;99.90
23683;DHT22;24897;53.514;10.482;2022-09-17T03:19:03;12.00;99.90
23683;DHT22;24897;53.514;10.482;2022-09-17T03:21:47;14.50;99.90
23683;DHT22;24897;53.514;10.482;2022-09-17T03:24:31;11.70;99.90
23683;DHT22;24897;53.514;10.482;2022-09-17T03:30:00;11.50;99.90
23683;DHT22;24897;53.514;10.482;2022-09-17T03:32:44;11.30;99.90
23683;DHT22;24897;53.514;10.482;2022-09-17T03:35:29;11.60;99.90
23683;DHT22;24897;53.514;10.482;2022-09-17T03:38:13;11.20;99.90
23683;DHT22;24897;53.514;10.482;2022-09-17T03:41:05;11.00;99.90
23683;DHT22;24897;53.514;10.482;2022-09-17T03:52:09;11.40;99.90
23683;DHT22;24897;53.514;10.482;2022-09-17T03:54:53;12.00;99.90
23683;DHT22;24897;53.514;10.482;2022-09-17T03:57:37;10.30;99.90
23683;DHT22;24897;53.514;10.482;2022-09-17T04:00:21;11.70;99.90
23683;DHT22;24897;53.514;10.482;2022-09-17T04:03:05;11.40;99.90
23683;DHT22;24897;53.514;10.482;2022-09-17T04:05:50;10.60;99.90
23683;DHT22;24897;53.514;10.482;2022-09-17T04:08:34;11.60;99.90
23683;DHT22;24897;53.514;10.482;2022-09-17T04:11:19;12.10;99.90
23683;DHT22;24897;53.514;10.482;2022-09-17T04:19:33;12.00;99.90
23683;DHT22;24897;53.514;10.482;2022-09-17T04:22:17;11.60;99.90
23683;DHT22;24897;53.514;10.482;2022-09-17T04:25:01;11.60;99.90
23683;DHT22;24897;53.514;10.482;2022-09-17T04:27:45;11.50;99.90
23683;DHT22;24897;53.514;10.482;2022-09-17T04:30:30;11.60;99.90
23683;DHT22;24897;53.514;10.482;2022-09-17T04:33:15;11.60;99.90
23683;DHT22;24897;53.514;10.482;2022-09-17T04:35:59;11.20;99.90
23683;DHT22;24897;53.514;10.482;2022-09-17T04:38:43;12.50;99.90
23683;DHT22;24897;53.514;10.482;2022-09-17T04:41:27;11.70;99.90
23683;DHT22;24897;53.514;10.482;2022-09-17T04:49:40;11.40;99.90
23683;DHT22;24897;53.514;10.482;2022-09-17T04:52:24;12.10;99.90
23683;DHT22;24897;53.514;10.482;2022-09-17T04:55:09;11.90;99.90
23683;DHT22;24897;53.514;10.482;2022-09-17T04:57:53;11.70;99.90
23683;DHT22;24897;53.514;10.482;2022-09-17T05:03:24;11.90;99.90
23683;DHT22;24897;53.514;10.482;2022-09-17T05:06:09;10.50;99.90
23683;DHT22;24897;53.514;10.482;2022-09-17T05:08:53;11.50;99.90
23683;DHT22;24897;53.514;10.482;2022-09-17T05:14:22;10.50;99.90
23683;DHT22;24897;53.514;10.482;2022-09-17T05:17:06;11.60;99.90
23683;DHT22;24897;53.514;10.482;2022-09-17T05:19:50;11.10;99.90
23683;DHT22;24897;53.514;10.482;2022-09-17T05:22:40;11.70;99.90
23683;DHT22;24897;53.514;10.482;2022-09-17T05:28:09;11.50;99.90
23683;DHT22;24897;53.514;10.482;2022-09-17T05:30:54;11.80;99.90
23683;DHT22;24897;53.514;10.482;2022-09-17T05:36:22;11.70;99.90
23683;DHT22;24897;53.514;10.482;2022-09-17T05:39:06;11.90;99.90
23683;DHT22;24897;53.514;10.482;2022-09-17T05:41:51;11.50;99.90
23683;DHT22;24897;53.514;10.482;2022-09-17T05:47:20;12.00;99.90
23683;DHT22;24897;53.514;10.482;2022-09-17T05:50:04;11.90;99.90
23683;DHT22;24897;53.514;10.482;2022-09-17T05:52:49;12.10;99.90
23683;DHT22;24897;53.514;10.482;2022-09-17T05:55:34;12.40;99.90
23683;DHT22;24897;53.514;10.482;2022-09-17T06:09:19;12.70;99.90
23683;DHT22;24897;53.514;10.482;2022-09-17T06:12:04;12.40;99.90
23683;DHT22;24897;53.514;10.482;2022-09-17T06:14:48;12.30;99.90
23683;DHT22;24897;53.514;10.482;2022-09-17T06:17:34;12.40;99.90
23683;DHT22;24897;53.514;10.482;2022-09-17T06:20:19;12.20;99.90
23683;DHT22;24897;53.514;10.482;2022-09-17T06:23:03;12.60;99.90
23683;DHT22;24897;53.514;10.482;2022-09-17T06:25:56;12.50;99.90
23683;DHT22;24897;53.514;10.482;2022-09-17T06:28:40;12.90;99.90
23683;DHT22;24897;53.514;10.482;2022-09-17T06:31:24;12.60;99.90
23683;DHT22;24897;53.514;10.482;2022-09-17T06:36:53;12.40;99.90
23683;DHT22;24897;53.514;10.482;2022-09-17T06:42:22;12.40;99.90
23683;DHT22;24897;53.514;10.482;2022-09-17T06:45:06;12.70;99.90
23683;DHT22;24897;53.514;10.482;2022-09-17T06:50:35;12.30;99.90
23683;DHT22;24897;53.514;10.482;2022-09-17T06:53:20;12.30;99.90
23683;DHT22;24897;53.514;10.482;2022-09-17T06:56:05;12.60;99.90
23683;DHT22;24897;53.514;10.482;2022-09-17T06:58:49;12.50;99.90
23683;DHT22;24897;53.514;10.482;2022-09-17T07:01:33;12.10;99.90
23683;DHT22;24897;53.514;10.482;2022-09-17T07:07:02;11.50;99.90
23683;DHT22;24897;53.514;10.482;2022-09-17T07:09:48;12.80;99.90
23683;DHT22;24897;53.514;10.482;2022-09-17T07:12:32;12.70;99.90
23683;DHT22;24897;53.514;10.482;2022-09-17T07:18:09;12.30;99.90
23683;DHT22;24897;53.514;10.482;2022-09-17T07:20:56;12.40;99.90
23683;DHT22;24897;53.514;10.482;2022-09-17T07:29:10;12.50;99.90
23683;DHT22;24897;53.514;10.482;2022-09-17T07:31:55;13.00;99.90
23683;DHT22;24897;53.514;10.482;2022-09-17T07:34:41;12.80;99.90
23683;DHT22;24897;53.514;10.482;2022-09-17T07:37:25;12.60;99.90
23683;DHT22;24897;53.514;10.482;2022-09-17T07:40:09;12.70;99.90
23683;DHT22;24897;53.514;10.482;2022-09-17T07:42:56;12.40;99.90
23683;DHT22;24897;53.514;10.482;2022-09-17T07:48:26;13.60;99.90
23683;DHT22;24897;53.514;10.482;2022-09-17T07:51:21;12.80;99.90
23683;DHT22;24897;53.514;10.482;2022-09-17T07:54:06;13.60;99.90
23683;DHT22;24897;53.514;10.482;2022-09-17T07:56:50;14.80;99.90
23683;DHT22;24897;53.514;10.482;2022-09-17T07:59:34;14.50;99.90
23683;DHT22;24897;53.514;10.482;2022-09-17T08:02:19;14.10;99.90
23683;DHT22;24897;53.514;10.482;2022-09-17T08:05:04;14.60;99.90
23683;DHT22;24897;53.514;10.482;2022-09-17T08:07:54;14.60;99.90
23683;DHT22;24897;53.514;10.482;2022-09-17T08:10:38;14.40;99.90
23683;DHT22;24897;53.514;10.482;2022-09-17T08:16:09;14.90;99.90
23683;DHT22;24897;53.514;10.482;2022-09-17T08:18:56;15.50;99.90
23683;DHT22;24897;53.514;10.482;2022-09-17T08:21:41;14.90;99.90
23683;DHT22;24897;53.514;10.482;2022-09-17T08:27:10;14.80;99.90
23683;DHT22;24897;53.514;10.482;2022-09-17T08:35:23;14.40;99.90
23683;DHT22;24897;53.514;10.482;2022-09-17T08:38:09;18.30;99.90
23683;DHT22;24897;53.514;10.482;2022-09-17T08:49:53;15.60;99.90
23683;DHT22;24897;53.514;10.482;2022-09-17T08:56:06;15.90;99.90
23683;DHT22;24897;53.514;10.482;2022-09-17T08:59:06;15.50;99.90
23683;DHT22;24897;53.514;10.482;2022-09-17T09:05:43;15.70;99.90
23683;DHT22;24897;53.514;10.482;2022-09-17T09:08:49;15.40;99.90
23683;DHT22;24897;53.514;10.482;2022-09-17T09:11:37;15.60;99.90
23683;DHT22;24897;53.514;10.482;2022-09-17T09:14:35;14.60;99.90
23683;DHT22;24897;53.514;10.482;2022-09-17T09:17:40;14.40;99.90
23683;DHT22;24897;53.514;10.482;2022-09-17T09:26:47;14.80;99.90
23683;DHT22;24897;53.514;10.482;2022-09-17T09:33:08;15.20;99.90
23683;DHT22;24897;53.514;10.482;2022-09-17T09:44:59;13.60;99.90
23683;DHT22;24897;53.514;10.482;2022-09-17T09:48:02;14.00;99.90
23683;DHT22;24897;53.514;10.482;2022-09-17T09:59:25;16.10;99.90
23683;DHT22;24897;53.514;10.482;2022-09-17T10:02:09;15.40;99.90
23683;DHT22;24897;53.514;10.482;2022-09-17T10:05:07;15.40;99.90
23683;DHT22;24897;53.514;10.482;2022-09-17T10:07:52;14.70;99.90
23683;DHT22;24897;53.514;10.482;2022-09-17T10:13:38;15.80;99.90
23683;DHT22;24897;53.514;10.482;2022-09-17T10:16:25;15.90;99.90
23683;DHT22;24897;53.514;10.482;2022-09-17T10:19:18;15.40;99.90
23683;DHT22;24897;53.514;10.482;2022-09-17T10:22:30;14.90;99.90
23683;DHT22;24897;53.514;10.482;2022-09-17T10:25:44;14.40;99.90
23683;DHT22;24897;53.514;10.482;2022-09-17T10:28:44;14.80;99.90
23683;DHT22;24897;53.514;10.482;2022-09-17T10:31:50;14.70;99.90
23683;DHT22;24897;53.514;10.482;2022-09-17T10:34:34;14.50;99.90
23683;DHT22;24897;53.514;10.482;2022-09-17T10:45:55;15.50;99.90
23683;DHT22;24897;53.514;10.482;2022-09-17T10:48:43;14.80;99.90
23683;DHT22;24897;53.514;10.482;2022-09-17T10:54:31;15.10;99.90
23683;DHT22;24897;53.514;10.482;2022-09-17T11:00:42;15.00;99.90
23683;DHT22;24897;53.514;10.482;2022-09-17T11:07:02;14.80;99.90
23683;DHT22;24897;53.514;10.482;2022-09-17T11:10:11;14.80;99.90
23683;DHT22;24897;53.514;10.482;2022-09-17T11:13:10;15.00;99.90
23683;DHT22;24897;53.514;10.482;2022-09-17T11:25:52;15.30;99.90
23683;DHT22;24897;53.514;10.482;2022-09-17T11:31:39;15.40;99.90
23683;DHT22;24897;53.514;10.482;2022-09-17T11:35:06;14.80;99.90
23683;DHT22;24897;53.514;10.482;2022-09-17T11:37:57;14.90;99.90
23683;DHT22;24897;53.514;10.482;2022-09-17T11:50:03;15.20;99.90
23683;DHT22;24897;53.514;10.482;2022-09-17T11:53:17;15.40;99.90
23683;DHT22;24897;53.514;10.482;2022-09-17T11:56:30;14.90;99.90
23683;DHT22;24897;53.514;10.482;2022-09-17T11:59:37;14.70;99.90
23683;DHT22;24897;53.514;10.482;2022-09-17T12:05:45;14.70;99.90
23683;DHT22;24897;53.514;10.482;2022-09-17T12:08:56;14.70;99.90
23683;DHT22;24897;53.514;10.482;2022-09-17T12:11:59;13.40;99.90
23683;DHT22;24897;53.514;10.482;2022-09-17T12:20:53;14.20;99.90
23683;DHT22;24897;53.514;10.482;2022-09-17T12:23:53;14.50;99.90
23683;DHT22;24897;53.514;10.482;2022-09-17T12:46:01;16.20;99.90
23683;DHT22;24897;53.514;10.482;2022-09-17T12:51:50;15.70;99.90
23683;DHT22;24897;53.514;10.482;2022-09-17T13:00:34;15.80;99.90
23683;DHT22;24897;53.514;10.482;2022-09-17T13:03:23;15.10;99.90
23683;DHT22;24897;53.514;10.482;2022-09-17T13:15:34;16.60;99.90
23683;DHT22;24897;53.514;10.482;2022-09-17T13:21:32;16.40;99.90
23683;DHT22;24897;53.514;10.482;2022-09-17T13:24:22;16.70;99.90
23683;DHT22;24897;53.514;10.482;2022-09-17T13:27:38;16.70;99.90
23683;DHT22;24897;53.514;10.482;2022-09-17T13:30:23;16.80;99.90
23683;DHT22;24897;53.514;10.482;2022-09-17T13:33:07;16.40;99.90
23683;DHT22;24897;53.514;10.482;2022-09-17T13:35:53;16.40;99.90
23683;DHT22;24897;53.514;10.482;2022-09-17T13:38:41;16.70;99.90
23683;DHT22;24897;53.514;10.482;2022-09-17T13:41:25;17.30;99.90
23683;DHT22;24897;53.514;10.482;2022-09-17T13:44:10;16.50;99.90
23683;DHT22;24897;53.514;10.482;2022-09-17T13:47:31;16.30;99.90
23683;DHT22;24897;53.514;10.482;2022-09-17T13:50:34;16.50;99.90
23683;DHT22;24897;53.514;10.482;2022-09-17T13:53:21;16.60;99.90
23683;DHT22;24897;53.514;10.482;2022-09-17T13:56:29;16.80;99.90
23683;DHT22;24897;53.514;10.482;2022-09-17T13:59:19;17.40;99.90
23683;DHT22;24897;53.514;10.482;2022-09-17T14:05:24;16.40;99.90
23683;DHT22;24897;53.514;10.482;2022-09-17T14:08:22;16.70;99.90
23683;DHT22;24897;53.514;10.482;2022-09-17T14:16:55;16.90;99.90
23683;DHT22;24897;53.514;10.482;2022-09-17T14:19:43;16.30;99.90
23683;DHT22;24897;53.514;10.482;2022-09-17T14:22:32;16.60;99.90
23683;DHT22;24897;53.514;10.482;2022-09-17T14:25:18;16.00;99.90
23683;DHT22;24897;53.514;10.482;2022-09-17T14:28:12;16.60;99.90
23683;DHT22;24897;53.514;10.482;2022-09-17T14:31:01;16.00;99.90
23683;DHT22;24897;53.514;10.482;2022-09-17T14:33:46;16.10;99.90
23683;DHT22;24897;53.514;10.482;2022-09-17T14:36:34;15.80;99.90
23683;DHT22;24897;53.514;10.482;2022-09-17T14:39:28;16.30;99.90
23683;DHT22;24897;53.514;10.482;2022-09-17T14:42:32;15.90;99.90
23683;DHT22;24897;53.514;10.482;2022-09-17T14:45:27;15.90;99.90
23683;DHT22;24897;53.514;10.482;2022-09-17T14:48:32;16.30;99.90
23683;DHT22;24897;53.514;10.482;2022-09-17T14:57:15;13.80;99.90
23683;DHT22;24897;53.514;10.482;2022-09-17T15:00:03;13.50;99.90
23683;DHT22;24897;53.514;10.482;2022-09-17T15:02:54;13.10;99.90
23683;DHT22;24897;53.514;10.482;2022-09-17T15:05:46;13.00;99.90
23683;DHT22;24897;53.514;10.482;2022-09-17T15:08:33;12.50;99.90
23683;DHT22;24897;53.514;10.482;2022-09-17T15:11:17;12.60;99.90
23683;DHT22;24897;53.514;10.482;2022-09-17T15:14:09;12.70;99.90
23683;DHT22;24897;53.514;10.482;2022-09-17T15:17:00;12.70;99.90
23683;DHT22;24897;53.514;10.482;2022-09-17T15:19:47;12.40;99.90
23683;DHT22;24897;53.514;10.482;2022-09-17T15:22:36;13.20;99.90
23683;DHT22;24897;53.514;10.482;2022-09-17T15:25:22;13.40;99.90
23683;DHT22;24897;53.514;10.482;2022-09-17T15:28:38;13.10;99.90
23683;DHT22;24897;53.514;10.482;2022-09-17T15:31:23;13.60;99.90
23683;DHT22;24897;53.514;10.482;2022-09-17T15:34:10;13.20;99.90
23683;DHT22;24897;53.514;10.482;2022-09-17T15:37:18;13.20;99.90
23683;DHT22;24897;53.514;10.482;2022-09-17T15:40:12;13.00;99.90
23683;DHT22;24897;53.514;10.482;2022-09-17T15:45:48;13.40;99.90
23683;DHT22;24897;53.514;10.482;2022-09-17T15:48:35;13.40;99.90
23683;DHT22;24897;53.514;10.482;2022-09-17T15:51:33;13.40;99.90
23683;DHT22;24897;53.514;10.482;2022-09-17T15:54:29;14.10;99.90
23683;DHT22;24897;53.514;10.482;2022-09-17T16:00:14;13.60;99.90
23683;DHT22;24897;53.514;10.482;2022-09-17T16:03:49;14.70;99.90
23683;DHT22;24897;53.514;10.482;2022-09-17T16:09:35;13.90;99.90
23683;DHT22;24897;53.514;10.482;2022-09-17T16:12:26;13.80;99.90
23683;DHT22;24897;53.514;10.482;2022-09-17T16:15:12;13.50;99.90
23683;DHT22;24897;53.514;10.482;2022-09-17T16:17:56;13.80;99.90
23683;DHT22;24897;53.514;10.482;2022-09-17T16:20:41;13.80;99.90
23683;DHT22;24897;53.514;10.482;2022-09-17T16:23:25;13.80;99.90
23683;DHT22;24897;53.514;10.482;2022-09-17T16:26:13;13.80;99.90
23683;DHT22;24897;53.514;10.482;2022-09-17T16:29:06;13.80;99.90
23683;DHT22;24897;53.514;10.482;2022-09-17T16:31:52;13.80;99.90
23683;DHT22;24897;53.514;10.482;2022-09-17T16:34:36;13.80;99.90
23683;DHT22;24897;53.514;10.482;2022-09-17T16:37:20;13.80;99.90
23683;DHT22;24897;53.514;10.482;2022-09-17T16:40:04;13.50;99.90
23683;DHT22;24897;53.514;10.482;2022-09-17T16:42:49;13.80;99.90
23683;DHT22;24897;53.514;10.482;2022-09-17T16:45:33;13.60;99.90
23683;DHT22;24897;53.514;10.482;2022-09-17T16:48:18;13.50;99.90
23683;DHT22;24897;53.514;10.482;2022-09-17T16:51:09;12.70;99.90
23683;DHT22;24897;53.514;10.482;2022-09-17T16:53:54;13.10;99.90
23683;DHT22;24897;53.514;10.482;2022-09-17T16:56:40;13.50;99.90
23683;DHT22;24897;53.514;10.482;2022-09-17T16:59:25;13.50;99.90
23683;DHT22;24897;53.514;10.482;2022-09-17T17:02:09;13.60;99.90
23683;DHT22;24897;53.514;10.482;2022-09-17T17:04:53;13.20;99.90
23683;DHT22;24897;53.514;10.482;2022-09-17T17:07:37;13.50;99.90
23683;DHT22;24897;53.514;10.482;2022-09-17T17:10:25;13.30;99.90
23683;DHT22;24897;53.514;10.482;2022-09-17T17:13:09;13.30;99.90
23683;DHT22;24897;53.514;10.482;2022-09-17T17:15:53;13.30;99.90
23683;DHT22;24897;53.514;10.482;2022-09-17T17:18:41;13.30;99.90
23683;DHT22;24897;53.514;10.482;2022-09-17T17:21:25;13.20;99.90
23683;DHT22;24897;53.514;10.482;2022-09-17T17:24:10;13.10;99.90
23683;DHT22;24897;53.514;10.482;2022-09-17T17:26:54;13.00;99.90
23683;DHT22;24897;53.514;10.482;2022-09-17T17:29:38;13.00;99.90
23683;DHT22;24897;53.514;10.482;2022-09-17T17:32:23;13.00;99.90
23683;DHT22;24897;53.514;10.482;2022-09-17T17:35:07;12.90;99.90
23683;DHT22;24897;53.514;10.482;2022-09-17T17:37:52;12.90;99.90
23683;DHT22;24897;53.514;10.482;2022-09-17T17:40:37;12.90;99.90
23683;DHT22;24897;53.514;10.482;2022-09-17T17:43:21;13.00;99.90
23683;DHT22;24897;53.514;10.482;2022-09-17T17:46:07;12.90;99.90
23683;DHT22;24897;53.514;10.482;2022-09-17T17:48:51;12.80;99.90
23683;DHT22;24897;53.514;10.482;2022-09-17T17:51:36;12.80;99.90
23683;DHT22;24897;53.514;10.482;2022-09-17T17:54:22;12.80;99.90
23683;DHT22;24897;53.514;10.482;2022-09-17T17:57:06;12.70;99.90
23683;DHT22;24897;53.514;10.482;2022-09-17T17:59:50;12.50;99.90
23683;DHT22;24897;53.514;10.482;2022-09-17T18:02:34;12.60;99.90
23683;DHT22;24897;53.514;10.482;2022-09-17T18:05:18;12.60;99.90
23683;DHT22;24897;53.514;10.482;2022-09-17T18:08:02;12.60;99.90
23683;DHT22;24897;53.514;10.482;2022-09-17T18:10:55;12.50;99.90
23683;DHT22;24897;53.514;10.482;2022-09-17T18:13:40;12.60;99.90
23683;DHT22;24897;53.514;10.482;2022-09-17T18:16:24;12.50;99.90
23683;DHT22;24897;53.514;10.482;2022-09-17T18:19:09;12.50;99.90
23683;DHT22;24897;53.514;10.482;2022-09-17T18:21:54;12.40;99.90
23683;DHT22;24897;53.514;10.482;2022-09-17T18:24:38;12.30;99.90
23683;DHT22;24897;53.514;10.482;2022-09-17T18:27:22;12.30;99.90
23683;DHT22;24897;53.514;10.482;2022-09-17T18:30:06;12.20;99.90
23683;DHT22;24897;53.514;10.482;2022-09-17T18:32:51;12.20;99.90
23683;DHT22;24897;53.514;10.482;2022-09-17T18:35:36;12.40;99.90
23683;DHT22;24897;53.514;10.482;2022-09-17T18:38:20;12.20;99.90
23683;DHT22;24897;53.514;10.482;2022-09-17T18:41:06;11.70;99.90
23683;DHT22;24897;53.514;10.482;2022-09-17T18:43:51;10.90;99.90
23683;DHT22;24897;53.514;10.482;2022-09-17T18:46:36;11.90;99.90
23683;DHT22;24897;53.514;10.482;2022-09-17T18:52:05;12.00;99.90
23683;DHT22;24897;53.514;10.482;2022-09-17T18:57:33;12.00;99.90
23683;DHT22;24897;53.514;10.482;2022-09-17T19:00:18;12.00;99.90
23683;DHT22;24897;53.514;10.482;2022-09-17T19:03:03;12.00;99.90
23683;DHT22;24897;53.514;10.482;2022-09-17T19:05:47;12.00;99.90
23683;DHT22;24897;53.514;10.482;2022-09-17T19:08:32;12.00;99.90
23683;DHT22;24897;53.514;10.482;2022-09-17T19:11:17;12.10;99.90
23683;DHT22;24897;53.514;10.482;2022-09-17T19:14:01;12.20;99.90
23683;DHT22;24897;53.514;10.482;2022-09-17T19:16:45;12.20;99.90
23683;DHT22;24897;53.514;10.482;2022-09-17T19:19:29;12.20;99.90
23683;DHT22;24897;53.514;10.482;2022-09-17T19:22:13;12.20;99.90
23683;DHT22;24897;53.514;10.482;2022-09-17T19:24:57;12.20;99.90
23683;DHT22;24897;53.514;10.482;2022-09-17T19:27:41;12.20;99.90
23683;DHT22;24897;53.514;10.482;2022-09-17T19:30:27;12.10;99.90
23683;DHT22;24897;53.514;10.482;2022-09-17T19:33:13;12.10;99.90
23683;DHT22;24897;53.514;10.482;2022-09-17T19:35:59;12.10;99.90
23683;DHT22;24897;53.514;10.482;2022-09-17T19:38:45;12.00;99.90
23683;DHT22;24897;53.514;10.482;2022-09-17T19:41:29;12.00;99.90
23683;DHT22;24897;53.514;10.482;2022-09-17T19:44:16;12.00;99.90
23683;DHT22;24897;53.514;10.482;2022-09-17T19:47:00;11.90;99.90
23683;DHT22;24897;53.514;10.482;2022-09-17T19:49:44;11.60;99.90
23683;DHT22;24897;53.514;10.482;2022-09-17T19:52:30;11.90;99.90
23683;DHT22;24897;53.514;10.482;2022-09-17T19:55:14;11.90;99.90
23683;DHT22;24897;53.514;10.482;2022-09-17T19:57:58;12.00;99.90
23683;DHT22;24897;53.514;10.482;2022-09-17T20:00:46;11.90;99.90
23683;DHT22;24897;53.514;10.482;2022-09-17T20:03:30;10.90;99.90
23683;DHT22;24897;53.514;10.482;2022-09-17T20:06:17;12.20;99.90
23683;DHT22;24897;53.514;10.482;2022-09-17T20:09:02;12.50;99.90
23683;DHT22;24897;53.514;10.482;2022-09-17T20:11:46;11.80;99.90
23683;DHT22;24897;53.514;10.482;2022-09-17T20:14:30;12.00;99.90
23683;DHT22;24897;53.514;10.482;2022-09-17T20:20:01;11.90;99.90
23683;DHT22;24897;53.514;10.482;2022-09-17T20:22:45;11.90;99.90
23683;DHT22;24897;53.514;10.482;2022-09-17T20:25:31;11.90;99.90
23683;DHT22;24897;53.514;10.482;2022-09-17T20:28:15;12.00;99.90
23683;DHT22;24897;53.514;10.482;2022-09-17T20:31:11;12.00;99.90
23683;DHT22;24897;53.514;10.482;2022-09-17T20:33:57;11.70;99.90
23683;DHT22;24897;53.514;10.482;2022-09-17T20:36:42;11.70;99.90
23683;DHT22;24897;53.514;10.482;2022-09-17T20:39:26;11.70;99.90
23683;DHT22;24897;53.514;10.482;2022-09-17T20:42:10;12.10;99.90
23683;DHT22;24897;53.514;10.482;2022-09-17T20:44:54;12.60;99.90
23683;DHT22;24897;53.514;10.482;2022-09-17T20:47:38;12.30;99.90
23683;DHT22;24897;53.514;10.482;2022-09-17T20:50:22;11.80;99.90
23683;DHT22;24897;53.514;10.482;2022-09-17T20:53:06;11.90;99.90
23683;DHT22;24897;53.514;10.482;2022-09-17T20:55:59;11.90;99.90
23683;DHT22;24897;53.514;10.482;2022-09-17T20:58:46;12.00;99.90
23683;DHT22;24897;53.514;10.482;2022-09-17T21:01:36;13.00;99.90
23683;DHT22;24897;53.514;10.482;2022-09-17T21:04:20;10.90;99.90
23683;DHT22;24897;53.514;10.482;2022-09-17T21:07:05;11.90;99.90
23683;DHT22;24897;53.514;10.482;2022-09-17T21:09:49;11.80;99.90
23683;DHT22;24897;53.514;10.482;2022-09-17T21:12:33;11.80;99.90
23683;DHT22;24897;53.514;10.482;2022-09-17T21:15:17;11.70;99.90
23683;DHT22;24897;53.514;10.482;2022-09-17T21:18:01;12.10;99.90
23683;DHT22;24897;53.514;10.482;2022-09-17T21:23:31;10.80;99.90
23683;DHT22;24897;53.514;10.482;2022-09-17T21:26:16;11.90;99.90
23683;DHT22;24897;53.514;10.482;2022-09-17T21:31:45;11.70;99.90
23683;DHT22;24897;53.514;10.482;2022-09-17T21:34:29;11.40;99.90
23683;DHT22;24897;53.514;10.482;2022-09-17T21:37:13;11.50;99.90
23683;DHT22;24897;53.514;10.482;2022-09-17T21:42:42;11.00;99.90
23683;DHT22;24897;53.514;10.482;2022-09-17T21:45:26;11.40;99.90
23683;DHT22;24897;53.514;10.482;2022-09-17T21:48:10;11.40;99.90
23683;DHT22;24897;53.514;10.482;2022-09-17T21:51:01;12.40;99.90
23683;DHT22;24897;53.514;10.482;2022-09-17T21:53:49;11.20;99.90
23683;DHT22;24897;53.514;10.482;2022-09-17T21:56:34;11.80;99.90
23683;DHT22;24897;53.514;10.482;2022-09-17T21:59:18;11.10;99.90
23683;DHT22;24897;53.514;10.482;2022-09-17T22:02:02;11.40;99.90
23683;DHT22;24897;53.514;10.482;2022-09-17T22:04:47;11.20;99.90
23683;DHT22;24897;53.514;10.482;2022-09-17T22:07:31;11.40;99.90
23683;DHT22;24897;53.514;10.482;2022-09-17T22:10:16;11.10;99.90
23683;DHT22;24897;53.514;10.482;2022-09-17T22:15:55;11.40;99.90
23683;DHT22;24897;53.514;10.482;2022-09-17T22:18:39;11.50;99.90
23683;DHT22;24897;53.514;10.482;2022-09-17T22:21:30;11.40;99.90
23683;DHT22;24897;53.514;10.482;2022-09-17T22:24:15;11.20;99.90
23683;DHT22;24897;53.514;10.482;2022-09-17T22:27:00;12.30;99.90
23683;DHT22;24897;53.514;10.482;2022-09-17T22:29:44;11.60;99.90
23683;DHT22;24897;53.514;10.482;2022-09-17T22:32:28;11.20;99.90